Time;durP1;ratioP1;P1;durP2;ratioP2;P2;SDS_P1;SDS_P2;PMS_P1;PMS_P2;Temp;Humidity;BMP_temperature;BMP_pressure;BME280_temperature;BME280_humidity;BME280_pressure;Samples;Min_cycle;Max_cycle;Signal;HPM_P1;HPM_P2
2023/02/16 00:00:53;;;;;;;39.25;19.20;;;;;;;;;;5115235;28;20702;-74
2023/02/16 00:03:21;;;;;;;41.80;18.60;;;;;;;;;;5116599;28;20079;-75
2023/02/16 00:05:49;;;;;;;38.22;18.65;;;;;;;;;;5116805;28;20139;-74
2023/02/16 00:08:16;;;;;;;38.67;18.23;;;;;;;;;;5115914;28;20176;-75
2023/02/16 00:13:43;;;;;;;36.28;18.45;;;;;;;;;;5113545;28;20135;-75
2023/02/16 00:13:43;;;;;;;33.20;17.85;;;;;;;;;;5113205;28;20055;-75
2023/02/16 00:16:14;;;;;;;41.00;19.20;;;;;;;;;;5113399;28;20122;-75
2023/02/16 00:18:41;;;;;;;33.15;19.02;;;;;;;;;;5113069;28;20043;-77
2023/02/16 00:21:07;;;;;;;33.53;16.52;;;;;;;;;;5112939;28;20413;-75
2023/02/16 00:23:34;;;;;;;33.45;18.08;;;;;;;;;;5112944;28;20131;-75
2023/02/16 00:26:02;;;;;;;34.55;19.08;;;;;;;;;;5110003;28;20451;-75
2023/02/16 00:28:29;;;;;;;31.05;17.17;;;;;;;;;;5092339;28;20051;-75
2023/02/16 00:30:55;;;;;;;36.33;18.00;;;;;;;;;;5092188;28;20197;-75
2023/02/16 00:33:22;;;;;;;34.13;18.92;;;;;;;;;;5092139;28;20047;-74
2023/02/16 00:35:49;;;;;;;32.63;17.77;;;;;;;;;;5091841;28;20111;-75
2023/02/16 00:38:15;;;;;;;29.80;18.40;;;;;;;;;;5091970;28;20048;-74
2023/02/16 00:40:43;;;;;;;36.70;17.70;;;;;;;;;;5093988;28;20147;-75
2023/02/16 00:43:21;;;;;;;30.17;16.65;;;;;;;;;;5111997;28;20054;-74
2023/02/16 00:45:48;;;;;;;28.55;16.27;;;;;;;;;;5112429;28;20051;-75
2023/02/16 00:48:14;;;;;;;29.63;16.95;;;;;;;;;;5112653;28;20048;-75
2023/02/16 00:50:41;;;;;;;29.40;16.50;;;;;;;;;;5112518;28;20103;-75
2023/02/16 00:53:09;;;;;;;29.30;16.70;;;;;;;;;;5112250;28;20232;-75
2023/02/16 00:55:37;;;;;;;30.20;16.58;;;;;;;;;;5115218;28;20070;-75
2023/02/16 00:58:08;;;;;;;29.25;16.67;;;;;;;;;;5116554;28;20077;-76
2023/02/16 01:00:39;;;;;;;29.27;15.80;;;;;;;;;;5116696;28;20138;-75
2023/02/16 01:03:08;;;;;;;30.33;16.20;;;;;;;;;;5110293;28;20169;-75
2023/02/16 01:05:35;;;;;;;29.38;16.60;;;;;;;;;;5116345;28;20050;-75
2023/02/16 01:11:10;;;;;;;28.35;15.43;;;;;;;;;;5034022;28;20135;-75
2023/02/16 01:13:43;;;;;;;29.02;16.15;;;;;;;;;;5033837;28;20046;-75
2023/02/16 01:16:16;;;;;;;28.70;16.20;;;;;;;;;;5066755;28;20073;-76
2023/02/16 01:18:43;;;;;;;26.25;15.02;;;;;;;;;;5106275;28;20075;-75
2023/02/16 01:21:09;;;;;;;27.33;17.05;;;;;;;;;;5116254;28;20086;-75
2023/02/16 01:23:36;;;;;;;30.58;16.75;;;;;;;;;;5115738;28;20417;-75
2023/02/16 01:26:03;;;;;;;31.85;16.95;;;;;;;;;;5116217;28;20085;-75
2023/02/16 01:28:30;;;;;;;26.00;15.30;;;;;;;;;;5116319;28;20050;-74
2023/02/16 01:30:57;;;;;;;27.10;14.98;;;;;;;;;;5116264;28;20082;-76
2023/02/16 01:33:25;;;;;;;28.30;15.52;;;;;;;;;;5116036;28;20127;-76
2023/02/16 01:35:53;;;;;;;23.98;13.32;;;;;;;;;;5115886;28;20130;-77
2023/02/16 01:38:22;;;;;;;23.25;13.68;;;;;;;;;;5114618;28;20046;-76
2023/02/16 01:41:00;;;;;;;20.52;13.85;;;;;;;;;;5116011;28;20398;-76
2023/02/16 01:43:31;;;;;;;20.90;13.25;;;;;;;;;;5115366;28;20081;-76
2023/02/16 01:46:03;;;;;;;24.02;13.95;;;;;;;;;;5115556;28;20156;-76
2023/02/16 01:48:32;;;;;;;19.70;12.23;;;;;;;;;;5098321;28;20570;-76
2023/02/16 01:51:05;;;;;;;24.10;12.32;;;;;;;;;;5095331;28;20079;-76
2023/02/16 01:53:34;;;;;;;23.67;12.93;;;;;;;;;;5094826;28;20056;-76
2023/02/16 01:56:05;;;;;;;22.38;12.88;;;;;;;;;;5096926;28;20048;-76
2023/02/16 01:58:35;;;;;;;;;;;;;;;;;;5115852;28;20047;-75
2023/02/16 02:01:37;;;;;;;20.40;11.85;;;;;;;;;;5115353;28;20022;-76
2023/02/16 02:07:06;;;;;;;18.75;11.55;;;;;;;;;;5106841;28;20529;-75
2023/02/16 02:09:42;;;;;;;21.65;11.95;;;;;;;;;;5120988;28;20126;-76
2023/02/16 02:12:18;;;;;;;22.60;13.15;;;;;;;;;;5115562;28;20048;-76
2023/02/16 02:14:46;;;;;;;18.48;11.43;;;;;;;;;;5115161;28;20048;-75
2023/02/16 02:17:16;;;;;;;22.02;13.30;;;;;;;;;;5114892;28;20138;-76
2023/02/16 02:19:52;;;;;;;22.65;13.10;;;;;;;;;;5115188;28;20052;-75
2023/02/16 02:26:48;;;;;;;22.35;13.27;;;;;;;;;;4990632;28;20070;-77
2023/02/16 02:29:35;;;;;;;20.13;12.93;;;;;;;;;;5068348;28;20123;-76
2023/02/16 02:32:09;;;;;;;21.40;13.90;;;;;;;;;;5095745;28;20040;-75
2023/02/16 02:34:58;;;;;;;18.40;12.60;;;;;;;;;;5073939;28;20055;-76
2023/02/16 02:37:36;;;;;;;21.13;11.98;;;;;;;;;;5073742;28;20522;-77
2023/02/16 02:40:08;;;;;;;21.73;12.70;;;;;;;;;;5081336;28;20043;-75
2023/02/16 02:42:43;;;;;;;21.50;12.65;;;;;;;;;;5114580;28;20051;-75
2023/02/16 02:45:16;;;;;;;23.20;12.85;;;;;;;;;;5114548;28;20040;-75
2023/02/16 02:47:44;;;;;;;24.60;13.02;;;;;;;;;;5114520;28;20399;-76
2023/02/16 02:50:35;;;;;;;22.23;13.32;;;;;;;;;;5114666;28;20059;-75
2023/02/16 02:53:04;;;;;;;22.45;13.88;;;;;;;;;;5114495;28;20047;-76
2023/02/16 03:01:08;;;;;;;22.48;13.00;;;;;;;;;;5114318;28;20125;-77
2023/02/16 03:03:38;;;;;;;20.27;12.38;;;;;;;;;;5114137;28;20044;-75
2023/02/16 03:06:09;;;;;;;22.70;12.25;;;;;;;;;;5113963;28;20536;-74
2023/02/16 03:08:41;;;;;;;23.50;13.25;;;;;;;;;;5114108;28;20043;-75
2023/02/16 03:14:01;;;;;;;21.95;12.70;;;;;;;;;;5093308;28;20055;-75
2023/02/16 03:16:33;;;;;;;19.80;11.48;;;;;;;;;;5098332;28;20108;-74
2023/02/16 03:30:09;;;;;;;19.15;11.20;;;;;;;;;;5113763;28;20516;-75
2023/02/16 03:32:35;;;;;;;17.17;11.48;;;;;;;;;;5113717;28;20058;-75
2023/02/16 03:35:02;;;;;;;19.15;12.10;;;;;;;;;;5113683;28;20109;-75
2023/02/16 03:37:29;;;;;;;19.42;11.93;;;;;;;;;;5113548;28;20047;-77
2023/02/16 03:42:39;;;;;;;16.65;11.30;;;;;;;;;;5095877;28;20047;-76
2023/02/16 03:45:08;;;;;;;20.67;12.32;;;;;;;;;;5092632;28;20134;-75
2023/02/16 03:47:35;;;;;;;17.98;11.65;;;;;;;;;;5093172;28;20131;-75
2023/02/16 03:50:01;;;;;;;19.52;11.77;;;;;;;;;;5093181;28;20123;-76
2023/02/16 03:52:28;;;;;;;19.45;11.45;;;;;;;;;;5108437;28;20086;-76
2023/02/16 03:54:55;;;;;;;20.52;11.60;;;;;;;;;;5113314;28;20047;-76
2023/02/16 03:57:21;;;;;;;19.95;12.55;;;;;;;;;;5112883;28;20047;-77
2023/02/16 03:59:49;;;;;;;19.50;11.98;;;;;;;;;;5113060;28;20134;-75
2023/02/16 04:02:17;;;;;;;18.85;10.80;;;;;;;;;;5113075;28;20040;-75
2023/02/16 04:04:44;;;;;;;18.73;11.95;;;;;;;;;;5115171;28;20044;-75
2023/02/16 04:07:10;;;;;;;18.27;11.40;;;;;;;;;;5116939;28;20047;-75
2023/02/16 04:09:37;;;;;;;22.27;12.15;;;;;;;;;;5115568;28;20130;-75
2023/02/16 04:14:48;;;;;;;18.65;11.00;;;;;;;;;;5092761;28;20114;-75
2023/02/16 04:17:16;;;;;;;17.85;10.38;;;;;;;;;;5092302;28;20076;-76
2023/02/16 04:19:43;;;;;;;18.40;12.13;;;;;;;;;;5092318;28;20044;-76
2023/02/16 04:22:10;;;;;;;20.30;11.82;;;;;;;;;;5092020;28;20414;-76
2023/02/16 04:24:36;;;;;;;19.92;11.70;;;;;;;;;;5092391;28;20044;-75
2023/02/16 04:27:05;;;;;;;20.15;10.60;;;;;;;;;;5102743;28;20574;-76
2023/02/16 04:29:32;;;;;;;20.20;11.80;;;;;;;;;;5112441;28;20122;-76
2023/02/16 04:31:58;;;;;;;18.63;12.57;;;;;;;;;;5112623;28;20056;-75
2023/02/16 04:34:26;;;;;;;18.73;11.75;;;;;;;;;;5112291;28;20126;-77
2023/02/16 04:36:53;;;;;;;19.95;12.18;;;;;;;;;;5112333;28;20047;-75
2023/02/16 04:39:20;;;;;;;19.27;11.80;;;;;;;;;;5112584;28;20472;-76
2023/02/16 04:41:47;;;;;;;20.00;12.10;;;;;;;;;;5094556;28;20056;-76
2023/02/16 04:44:14;;;;;;;17.27;11.25;;;;;;;;;;5091933;28;20040;-76
2023/02/16 04:46:40;;;;;;;16.40;11.18;;;;;;;;;;5091986;28;20044;-74
2023/02/16 04:49:07;;;;;;;20.90;12.70;;;;;;;;;;5091818;28;20048;-74
2023/02/16 04:51:35;;;;;;;20.38;11.73;;;;;;;;;;5107350;28;20043;-75
2023/02/16 04:54:02;;;;;;;18.67;12.30;;;;;;;;;;5111833;28;20127;-76
2023/02/16 04:56:28;;;;;;;18.52;11.55;;;;;;;;;;5106653;28;20052;-75
2023/02/16 04:58:56;;;;;;;18.08;12.15;;;;;;;;;;5091775;28;20132;-74
2023/02/16 05:01:25;;;;;;;19.45;11.75;;;;;;;;;;5092212;28;20050;-77
2023/02/16 05:03:51;;;;;;;20.98;11.85;;;;;;;;;;5091716;28;20050;-77
2023/02/16 05:06:18;;;;;;;20.40;12.20;;;;;;;;;;5092047;28;20044;-77
2023/02/16 05:08:46;;;;;;;20.17;12.40;;;;;;;;;;5071490;28;20044;-77
2023/02/16 05:16:41;;;;;;;20.75;12.52;;;;;;;;;;5077954;28;20105;-76
2023/02/16 05:19:08;;;;;;;21.17;12.23;;;;;;;;;;5093260;28;20127;-77
2023/02/16 05:21:35;;;;;;;17.85;12.00;;;;;;;;;;5093959;28;20566;-77
2023/02/16 05:24:05;;;;;;;18.73;11.88;;;;;;;;;;5094582;28;20112;-76
2023/02/16 05:26:32;;;;;;;17.75;11.52;;;;;;;;;;5092886;28;20127;-76
2023/02/16 05:28:59;;;;;;;19.15;11.50;;;;;;;;;;5092267;28;20044;-76
2023/02/16 05:31:26;;;;;;;21.83;12.27;;;;;;;;;;5092356;28;20126;-76
2023/02/16 05:33:53;;;;;;;17.48;11.50;;;;;;;;;;5091699;28;20044;-76
2023/02/16 05:36:21;;;;;;;17.55;11.98;;;;;;;;;;5092405;28;20048;-76
2023/02/16 05:38:47;;;;;;;17.30;9.98;;;;;;;;;;5092400;28;20131;-75
2023/02/16 05:41:22;;;;;;;19.92;12.25;;;;;;;;;;5092777;28;20127;-75
2023/02/16 05:43:49;;;;;;;18.35;10.90;;;;;;;;;;5095800;28;20079;-76
2023/02/16 05:46:16;;;;;;;17.50;11.85;;;;;;;;;;5098902;28;20131;-75
2023/02/16 05:48:42;;;;;;;17.55;10.82;;;;;;;;;;5116133;28;20086;-75
2023/02/16 05:51:09;;;;;;;16.60;10.38;;;;;;;;;;5117535;28;20131;-76
2023/02/16 05:53:35;;;;;;;16.98;11.27;;;;;;;;;;5117807;28;20147;-76
2023/02/16 05:56:02;;;;;;;17.17;11.95;;;;;;;;;;5113285;28;20093;-76
2023/02/16 05:58:30;;;;;;;16.25;11.00;;;;;;;;;;5095293;28;20048;-76
2023/02/16 06:00:57;;;;;;;18.40;11.48;;;;;;;;;;5094824;28;20471;-77
2023/02/16 06:03:24;;;;;;;17.75;11.35;;;;;;;;;;5094669;28;20052;-76
2023/02/16 06:05:53;;;;;;;20.13;11.20;;;;;;;;;;5094536;28;20456;-76
2023/02/16 06:08:19;;;;;;;17.98;11.60;;;;;;;;;;5094764;28;20130;-76
2023/02/16 06:10:46;;;;;;;22.77;12.13;;;;;;;;;;5095160;28;20139;-76
2023/02/16 06:13:13;;;;;;;20.17;13.05;;;;;;;;;;5094628;28;20123;-75
2023/02/16 06:15:41;;;;;;;22.27;13.55;;;;;;;;;;5094732;28;20138;-75
2023/02/16 06:18:07;;;;;;;22.17;12.63;;;;;;;;;;5112566;28;20157;-76
2023/02/16 06:20:34;;;;;;;19.83;12.40;;;;;;;;;;5115220;28;20450;-76
2023/02/16 06:23:01;;;;;;;20.25;12.82;;;;;;;;;;5114973;28;20050;-76
2023/02/16 06:25:27;;;;;;;20.75;13.27;;;;;;;;;;5114933;28;20134;-76
2023/02/16 06:27:55;;;;;;;25.17;14.02;;;;;;;;;;5097100;28;20040;-75
2023/02/16 06:30:22;;;;;;;24.73;15.35;;;;;;;;;;5094765;28;20052;-76
2023/02/16 06:32:50;;;;;;;26.65;14.02;;;;;;;;;;5094711;28;20070;-77
2023/02/16 06:35:17;;;;;;;24.60;14.18;;;;;;;;;;5094324;28;20056;-77
2023/02/16 06:37:44;;;;;;;25.50;15.93;;;;;;;;;;5110184;28;20498;-76
2023/02/16 06:40:14;;;;;;;26.50;15.45;;;;;;;;;;5116098;28;20055;-78
2023/02/16 06:42:41;;;;;;;27.85;14.10;;;;;;;;;;5117437;28;20123;-78
2023/02/16 06:45:09;;;;;;;26.73;14.63;;;;;;;;;;5117095;28;20491;-77
2023/02/16 06:47:36;;;;;;;24.08;14.02;;;;;;;;;;5104694;28;20079;-78
2023/02/16 06:50:08;;;;;;;28.55;14.90;;;;;;;;;;5097169;28;20044;-78
2023/02/16 06:52:35;;;;;;;24.58;13.10;;;;;;;;;;5096970;28;20135;-78
2023/02/16 06:55:01;;;;;;;26.83;15.20;;;;;;;;;;5097826;28;20127;-78
2023/02/16 06:57:28;;;;;;;30.25;14.95;;;;;;;;;;5102381;28;20467;-78
2023/02/16 06:59:55;;;;;;;27.52;14.38;;;;;;;;;;5117496;28;20506;-77
2023/02/16 07:02:22;;;;;;;24.65;13.27;;;;;;;;;;5121140;28;20050;-77
2023/02/16 07:04:49;;;;;;;25.55;14.02;;;;;;;;;;5106787;28;20089;-76
2023/02/16 07:07:17;;;;;;;26.80;13.85;;;;;;;;;;5096729;28;20068;-77
2023/02/16 07:09:43;;;;;;;24.30;14.02;;;;;;;;;;5113836;28;20513;-76
2023/02/16 07:12:10;;;;;;;24.20;13.88;;;;;;;;;;5114298;28;20634;-77
2023/02/16 07:14:36;;;;;;;19.75;13.02;;;;;;;;;;5114697;28;20122;-77
2023/02/16 07:17:03;;;;;;;22.95;13.80;;;;;;;;;;5102914;28;20044;-76
2023/02/16 07:19:31;;;;;;;19.23;12.68;;;;;;;;;;5100599;28;20498;-76
2023/02/16 07:21:58;;;;;;;24.05;13.65;;;;;;;;;;5104928;28;20486;-76
2023/02/16 07:24:26;;;;;;;23.42;15.45;;;;;;;;;;5115072;28;20047;-76
2023/02/16 07:26:53;;;;;;;23.33;13.30;;;;;;;;;;5096105;28;20044;-75
2023/02/16 07:29:20;;;;;;;25.30;14.82;;;;;;;;;;5095029;28;20126;-77
2023/02/16 07:31:46;;;;;;;28.05;14.48;;;;;;;;;;5093190;28;20054;-76
2023/02/16 07:34:13;;;;;;;25.77;14.77;;;;;;;;;;5093636;28;20127;-76
2023/02/16 07:36:40;;;;;;;26.63;14.73;;;;;;;;;;5093218;28;20081;-76
2023/02/16 07:39:06;;;;;;;27.23;14.35;;;;;;;;;;5093349;28;20044;-76
2023/02/16 07:41:34;;;;;;;32.20;14.85;;;;;;;;;;5092694;28;20048;-75
2023/02/16 07:44:01;;;;;;;29.95;16.08;;;;;;;;;;5092920;28;20483;-75
2023/02/16 07:46:28;;;;;;;26.55;15.40;;;;;;;;;;5099119;28;20489;-75
2023/02/16 07:48:54;;;;;;;32.00;17.23;;;;;;;;;;5103256;28;20047;-76
2023/02/16 07:51:22;;;;;;;29.48;16.13;;;;;;;;;;5094842;28;20048;-76
2023/02/16 07:53:49;;;;;;;25.83;16.25;;;;;;;;;;5093227;28;20044;-75
2023/02/16 07:56:19;;;;;;;32.17;17.02;;;;;;;;;;5101345;28;20562;-76
2023/02/16 07:58:47;;;;;;;31.15;17.20;;;;;;;;;;5093166;28;20044;-75
2023/02/16 08:01:14;;;;;;;32.28;16.63;;;;;;;;;;5092724;28;20044;-76
2023/02/16 08:03:41;;;;;;;30.48;16.13;;;;;;;;;;5092537;28;20048;-76
2023/02/16 08:06:08;;;;;;;28.02;16.27;;;;;;;;;;5092120;28;20048;-76
2023/02/16 08:08:35;;;;;;;33.13;18.17;;;;;;;;;;5095034;28;20483;-76
2023/02/16 08:11:08;;;;;;;36.95;19.50;;;;;;;;;;5091227;28;20043;-76
2023/02/16 08:13:35;;;;;;;38.67;20.70;;;;;;;;;;5089762;28;20119;-76
2023/02/16 08:16:07;;;;;;;38.20;20.85;;;;;;;;;;5091009;28;20044;-76
2023/02/16 08:18:34;;;;;;;37.80;20.13;;;;;;;;;;5088074;28;20043;-76
2023/02/16 08:21:12;;;;;;;34.20;18.42;;;;;;;;;;5090423;28;20131;-76
2023/02/16 08:23:40;;;;;;;30.52;18.15;;;;;;;;;;5088516;28;20544;-76
2023/02/16 08:26:09;;;;;;;32.03;17.77;;;;;;;;;;5090247;28;20059;-76
2023/02/16 08:28:36;;;;;;;26.25;17.10;;;;;;;;;;5088177;28;20051;-77
2023/02/16 08:31:05;;;;;;;31.05;17.70;;;;;;;;;;5090950;28;20043;-77
2023/02/16 08:33:33;;;;;;;29.33;17.02;;;;;;;;;;5090232;28;20080;-76
2023/02/16 08:36:00;;;;;;;32.50;18.30;;;;;;;;;;5090557;28;20089;-76
2023/02/16 08:38:27;;;;;;;27.90;18.48;;;;;;;;;;5090686;28;20044;-76
2023/02/16 08:40:54;;;;;;;29.35;17.10;;;;;;;;;;5088715;28;20098;-76
2023/02/16 08:43:21;;;;;;;29.15;17.33;;;;;;;;;;5093224;28;20054;-79
2023/02/16 08:45:49;;;;;;;35.67;19.90;;;;;;;;;;5093115;28;20126;-80
2023/02/16 08:48:17;;;;;;;31.35;19.08;;;;;;;;;;5095621;28;20048;-80
2023/02/16 08:50:52;;;;;;;34.67;18.75;;;;;;;;;;5093516;28;20080;-77
2023/02/16 08:53:20;;;;;;;29.67;16.88;;;;;;;;;;5093112;28;20052;-78
2023/02/16 08:55:51;;;;;;;29.48;17.65;;;;;;;;;;5091472;28;20051;-77
2023/02/16 08:58:18;;;;;;;31.75;18.15;;;;;;;;;;5090251;28;20700;-83
2023/02/16 09:00:45;;;;;;;30.98;16.92;;;;;;;;;;5095236;28;20043;-81
2023/02/16 09:03:12;;;;;;;32.55;18.63;;;;;;;;;;5091727;28;20040;-79
2023/02/16 09:05:40;;;;;;;32.47;17.65;;;;;;;;;;5095636;28;20044;-80
2023/02/16 09:08:07;;;;;;;30.80;17.25;;;;;;;;;;5091681;28;20109;-78
2023/02/16 09:10:34;;;;;;;37.53;18.58;;;;;;;;;;5096292;28;20052;-84
2023/02/16 09:13:00;;;;;;;30.90;18.52;;;;;;;;;;5092978;28;20071;-78
2023/02/16 09:15:27;;;;;;;30.42;17.65;;;;;;;;;;5092192;28;20494;-79
2023/02/16 09:17:54;;;;;;;35.47;18.38;;;;;;;;;;5090653;28;20134;-78
2023/02/16 09:20:21;;;;;;;34.25;17.15;;;;;;;;;;5095370;28;20135;-78
2023/02/16 09:22:49;;;;;;;25.80;14.68;;;;;;;;;;5089697;28;20064;-78
2023/02/16 09:25:16;;;;;;;27.63;13.45;;;;;;;;;;5078126;28;20072;-77
2023/02/16 09:27:43;;;;;;;27.33;13.93;;;;;;;;;;5074210;28;20055;-77
2023/02/16 09:30:10;;;;;;;24.10;11.55;;;;;;;;;;5090353;28;20044;-77
2023/02/16 09:32:37;;;;;;;19.10;10.57;;;;;;;;;;5094676;28;20056;-77
2023/02/16 09:35:04;;;;;;;20.02;9.93;;;;;;;;;;5096127;28;20076;-77
2023/02/16 09:37:31;;;;;;;22.65;10.20;;;;;;;;;;5095356;28;20048;-78
2023/02/16 09:39:59;;;;;;;23.95;10.65;;;;;;;;;;5095368;28;20075;-77
2023/02/16 09:42:34;;;;;;;20.52;10.27;;;;;;;;;;5110793;28;20579;-78
2023/02/16 09:45:08;;;;;;;18.65;9.10;;;;;;;;;;5117324;28;20395;-78
2023/02/16 09:47:38;;;;;;;19.15;9.20;;;;;;;;;;5117561;28;20044;-79
2023/02/16 09:50:13;;;;;;;19.73;10.18;;;;;;;;;;5099998;28;20721;-77
2023/02/16 09:52:43;;;;;;;19.95;9.93;;;;;;;;;;5098842;28;20127;-78
2023/02/16 09:55:15;;;;;;;18.10;9.27;;;;;;;;;;5115434;28;20040;-78
2023/02/16 09:57:59;;;;;;;20.10;9.77;;;;;;;;;;5102563;28;20396;-78
2023/02/16 10:00:36;;;;;;;22.15;10.73;;;;;;;;;;5101523;28;20044;-78
2023/02/16 10:03:13;;;;;;;19.05;10.50;;;;;;;;;;5103149;28;20081;-78
2023/02/16 10:05:46;;;;;;;21.75;11.32;;;;;;;;;;5094598;28;20040;-78
2023/02/16 10:08:15;;;;;;;21.77;11.43;;;;;;;;;;5093989;28;20059;-78
2023/02/16 10:10:48;;;;;;;20.80;9.40;;;;;;;;;;5094637;28;20131;-78
2023/02/16 10:13:24;;;;;;;25.25;11.68;;;;;;;;;;5080248;28;20068;-79
2023/02/16 10:15:54;;;;;;;23.70;12.02;;;;;;;;;;5093952;28;20059;-77
2023/02/16 10:18:28;;;;;;;22.58;10.63;;;;;;;;;;5093960;28;20135;-77
2023/02/16 10:20:59;;;;;;;22.23;11.23;;;;;;;;;;5094537;28;20040;-77
2023/02/16 10:23:38;;;;;;;20.65;10.93;;;;;;;;;;5093271;28;20063;-77
2023/02/16 10:26:17;;;;;;;24.50;11.05;;;;;;;;;;5093374;28;20044;-77
2023/02/16 10:28:47;;;;;;;23.08;10.48;;;;;;;;;;5092830;28;20044;-77
2023/02/16 10:31:24;;;;;;;27.63;11.75;;;;;;;;;;5093835;28;20044;-77
2023/02/16 10:34:10;;;;;;;27.80;12.82;;;;;;;;;;5093853;28;20050;-78
2023/02/16 10:36:56;;;;;;;20.08;11.07;;;;;;;;;;5092650;28;20485;-78
2023/02/16 10:39:29;;;;;;;28.40;13.68;;;;;;;;;;5093134;28;20090;-77
2023/02/16 10:42:08;;;;;;;23.45;11.82;;;;;;;;;;5093536;28;20128;-78
2023/02/16 10:44:40;;;;;;;24.30;10.98;;;;;;;;;;5093337;28;20468;-77
2023/02/16 10:47:17;;;;;;;19.25;10.05;;;;;;;;;;5092848;28;20097;-77
2023/02/16 10:49:46;;;;;;;24.60;11.93;;;;;;;;;;5093053;28;20562;-77
2023/02/16 10:52:13;;;;;;;21.52;10.82;;;;;;;;;;5093652;28;20153;-77
2023/02/16 10:54:40;;;;;;;22.63;11.15;;;;;;;;;;5093350;28;20490;-76
2023/02/16 10:57:23;;;;;;;19.52;10.52;;;;;;;;;;5092724;28;20138;-76
2023/02/16 10:59:50;;;;;;;19.80;9.88;;;;;;;;;;5092944;28;20044;-76
2023/02/16 11:02:19;;;;;;;21.67;9.73;;;;;;;;;;5093176;28;20151;-76
2023/02/16 11:04:47;;;;;;;17.13;9.18;;;;;;;;;;5092719;28;20052;-77
2023/02/16 11:07:16;;;;;;;18.45;9.00;;;;;;;;;;5091935;28;20505;-77
2023/02/16 11:09:45;;;;;;;16.05;7.43;;;;;;;;;;5092661;28;20048;-77
2023/02/16 11:12:25;;;;;;;19.13;8.70;;;;;;;;;;5092542;28;20072;-78
2023/02/16 11:14:54;;;;;;;16.58;8.43;;;;;;;;;;5092678;28;20127;-76
2023/02/16 11:17:23;;;;;;;15.93;7.85;;;;;;;;;;5091805;28;20060;-77
2023/02/16 11:19:53;;;;;;;14.82;8.52;;;;;;;;;;5091940;28;20043;-78
2023/02/16 11:22:29;;;;;;;16.55;7.75;;;;;;;;;;5092546;28;20040;-77
2023/02/16 11:24:58;;;;;;;17.05;8.23;;;;;;;;;;5091918;28;20418;-77
2023/02/16 11:27:26;;;;;;;17.85;8.20;;;;;;;;;;5093342;28;20040;-76
2023/02/16 11:30:21;;;;;;;17.58;7.63;;;;;;;;;;5093520;28;20131;-77
2023/02/16 11:32:48;;;;;;;16.95;7.53;;;;;;;;;;5092318;28;20323;-76
2023/02/16 11:35:16;;;;;;;16.25;7.50;;;;;;;;;;5092655;28;20152;-76
2023/02/16 11:37:44;;;;;;;16.38;7.80;;;;;;;;;;5092017;28;20490;-76
2023/02/16 11:40:22;;;;;;;18.13;8.13;;;;;;;;;;5091496;28;20083;-76
2023/02/16 11:42:52;;;;;;;17.80;7.30;;;;;;;;;;5092275;28;20076;-78
2023/02/16 11:45:26;;;;;;;15.60;8.25;;;;;;;;;;5092132;28;20055;-77
2023/02/16 11:47:54;;;;;;;14.07;6.85;;;;;;;;;;5094517;28;20046;-78
2023/02/16 11:50:25;;;;;;;15.07;6.25;;;;;;;;;;5072347;28;20132;-76
2023/02/16 11:52:54;;;;;;;14.75;6.93;;;;;;;;;;5076497;28;20052;-76
2023/02/16 11:55:26;;;;;;;17.00;7.30;;;;;;;;;;5091841;28;20070;-80
2023/02/16 11:57:55;;;;;;;14.98;7.05;;;;;;;;;;5099116;28;20070;-77
2023/02/16 12:00:25;;;;;;;12.75;5.95;;;;;;;;;;5092962;28;20048;-77
2023/02/16 12:03:20;;;;;;;14.35;7.63;;;;;;;;;;5096868;28;20044;-80
2023/02/16 12:06:06;;;;;;;15.98;7.35;;;;;;;;;;5091330;28;20044;-78
2023/02/16 12:08:43;;;;;;;17.73;7.40;;;;;;;;;;5091201;28;20387;-77
2023/02/16 12:11:25;;;;;;;15.25;6.60;;;;;;;;;;5091069;28;20101;-78
2023/02/16 12:14:03;;;;;;;11.95;5.63;;;;;;;;;;5091319;28;20072;-77
2023/02/16 12:16:36;;;;;;;10.30;5.10;;;;;;;;;;5092534;28;20123;-77
2023/02/16 12:19:17;;;;;;;10.90;5.28;;;;;;;;;;5093118;28;20048;-76
2023/02/16 12:21:47;;;;;;;13.93;5.50;;;;;;;;;;5093084;28;20044;-77
2023/02/16 12:24:30;;;;;;;12.15;4.78;;;;;;;;;;5088082;28;20086;-80
2023/02/16 12:27:01;;;;;;;10.98;4.43;;;;;;;;;;5083361;28;20052;-79
2023/02/16 12:29:44;;;;;;;10.57;4.88;;;;;;;;;;5111780;28;20103;-77
2023/02/16 12:32:22;;;;;;;10.07;5.25;;;;;;;;;;5092241;28;20490;-76
2023/02/16 12:34:59;;;;;;;14.43;5.75;;;;;;;;;;5093668;28;20044;-78
2023/02/16 12:37:33;;;;;;;10.20;4.20;;;;;;;;;;5079492;28;20098;-78
2023/02/16 12:40:16;;;;;;;12.63;5.75;;;;;;;;;;5073895;28;20081;-76
2023/02/16 12:42:55;;;;;;;12.27;5.60;;;;;;;;;;5085980;28;20582;-83
2023/02/16 12:45:27;;;;;;;10.57;4.97;;;;;;;;;;5094611;28;20219;-83
2023/02/16 12:47:57;;;;;;;12.23;5.35;;;;;;;;;;5090341;28;20079;-76
2023/02/16 12:50:27;;;;;;;13.50;5.55;;;;;;;;;;5092389;28;20054;-77
2023/02/16 12:52:57;;;;;;;11.20;5.60;;;;;;;;;;5101751;28;20058;-77
2023/02/16 12:55:28;;;;;;;11.20;4.97;;;;;;;;;;5123971;28;20046;-75
2023/02/16 12:58:08;;;;;;;14.13;4.95;;;;;;;;;;5124200;28;20103;-76
2023/02/16 13:00:47;;;;;;;14.02;6.03;;;;;;;;;;5125404;28;20069;-77
2023/02/16 13:03:25;;;;;;;9.73;5.28;;;;;;;;;;5090145;28;20055;-76
2023/02/16 13:06:02;;;;;;;13.43;5.63;;;;;;;;;;5102066;28;20052;-79
2023/02/16 13:08:37;;;;;;;14.13;5.45;;;;;;;;;;5107480;28;20109;-77
2023/02/16 13:11:11;;;;;;;10.70;4.90;;;;;;;;;;5105604;28;20075;-77
2023/02/16 13:13:39;;;;;;;14.48;5.45;;;;;;;;;;5119904;28;20044;-77
2023/02/16 13:16:16;;;;;;;10.80;5.25;;;;;;;;;;5120232;28;20055;-77
2023/02/16 13:18:44;;;;;;;12.23;6.03;;;;;;;;;;5119725;28;20058;-77
2023/02/16 13:21:17;;;;;;;12.00;5.40;;;;;;;;;;5113748;28;20051;-77
2023/02/16 13:23:57;;;;;;;15.90;5.70;;;;;;;;;;5090826;28;20040;-77
2023/02/16 13:26:43;;;;;;;13.60;5.25;;;;;;;;;;5099638;28;20055;-77
2023/02/16 13:29:26;;;;;;;9.68;4.40;;;;;;;;;;5085327;28;20348;-77
2023/02/16 13:32:06;;;;;;;13.18;5.93;;;;;;;;;;5098645;28;20048;-76
2023/02/16 13:34:57;;;;;;;9.63;4.97;;;;;;;;;;5096803;28;20272;-76
2023/02/16 13:37:39;;;;;;;13.30;6.22;;;;;;;;;;5096540;28;20517;-75
2023/02/16 13:40:24;;;;;;;13.15;6.68;;;;;;;;;;5096325;28;20048;-76
2023/02/16 13:43:13;;;;;;;13.02;6.38;;;;;;;;;;5087771;28;20045;-76
2023/02/16 13:45:42;;;;;;;13.02;5.53;;;;;;;;;;5090143;28;20129;-79
2023/02/16 13:48:20;;;;;;;11.13;5.55;;;;;;;;;;5093866;28;20067;-76
2023/02/16 13:50:54;;;;;;;10.80;5.20;;;;;;;;;;5096519;28;20131;-75
2023/02/16 13:53:22;;;;;;;14.35;6.40;;;;;;;;;;5096355;28;20151;-76
2023/02/16 13:55:49;;;;;;;9.95;5.40;;;;;;;;;;5096528;28;20507;-76
2023/02/16 13:58:31;;;;;;;11.70;5.70;;;;;;;;;;5101007;28;20061;-77
2023/02/16 14:00:58;;;;;;;11.65;5.68;;;;;;;;;;5076304;28;20052;-76
2023/02/16 14:03:38;;;;;;;14.48;6.38;;;;;;;;;;5072339;28;20436;-77
2023/02/16 14:06:35;;;;;;;13.45;6.07;;;;;;;;;;5093027;28;20075;-78
2023/02/16 14:09:32;;;;;;;12.05;6.10;;;;;;;;;;5103871;28;20047;-76
2023/02/16 14:12:16;;;;;;;11.07;6.18;;;;;;;;;;5113410;28;20140;-76
2023/02/16 14:14:54;;;;;;;12.55;6.13;;;;;;;;;;5091466;28;20057;-76
2023/02/16 14:17:25;;;;;;;11.55;5.50;;;;;;;;;;5073231;28;20071;-76
2023/02/16 14:19:57;;;;;;;14.15;5.50;;;;;;;;;;5091498;28;20079;-76
2023/02/16 14:22:32;;;;;;;13.65;5.80;;;;;;;;;;5093264;28;20138;-77
2023/02/16 14:25:01;;;;;;;11.98;6.38;;;;;;;;;;5097484;28;20093;-78
2023/02/16 14:27:43;;;;;;;12.15;5.63;;;;;;;;;;5087501;28;20050;-76
2023/02/16 14:30:25;;;;;;;14.95;6.45;;;;;;;;;;5093093;28;20229;-76
2023/02/16 14:32:56;;;;;;;14.32;6.97;;;;;;;;;;5093163;28;20048;-77
2023/02/16 14:35:28;;;;;;;13.10;5.95;;;;;;;;;;5092797;28;20062;-76
2023/02/16 14:37:58;;;;;;;13.30;5.72;;;;;;;;;;5092975;28;20040;-77
2023/02/16 14:40:45;;;;;;;11.38;6.13;;;;;;;;;;5093105;28;20052;-77
2023/02/16 14:43:25;;;;;;;14.77;6.93;;;;;;;;;;5092860;28;20812;-78
2023/02/16 14:46:20;;;;;;;10.63;5.60;;;;;;;;;;5092113;28;20590;-75
2023/02/16 14:49:24;;;;;;;10.23;4.65;;;;;;;;;;5092349;28;20509;-75
2023/02/16 14:52:35;;;;;;;12.00;5.18;;;;;;;;;;5090739;28;20418;-75
2023/02/16 14:55:15;;;;;;;10.55;4.72;;;;;;;;;;5093187;28;20070;-76
2023/02/16 14:57:48;;;;;;;12.48;6.40;;;;;;;;;;5092888;28;20079;-76
2023/02/16 15:00:25;;;;;;;11.48;5.25;;;;;;;;;;5092400;28;20128;-76
2023/02/16 15:02:57;;;;;;;12.85;5.82;;;;;;;;;;5092383;28;20044;-75
2023/02/16 15:05:27;;;;;;;12.20;5.18;;;;;;;;;;5092299;28;20044;-75
2023/02/16 15:08:03;;;;;;;14.73;6.90;;;;;;;;;;5091849;28;20052;-75
2023/02/16 15:10:31;;;;;;;15.15;6.07;;;;;;;;;;5092036;28;20106;-76
2023/02/16 15:12:58;;;;;;;9.93;5.32;;;;;;;;;;5100902;28;20127;-76
2023/02/16 15:15:31;;;;;;;13.15;6.70;;;;;;;;;;5092134;28;20139;-76
2023/02/16 15:17:59;;;;;;;12.85;6.22;;;;;;;;;;5091895;28;20522;-77
2023/02/16 15:20:29;;;;;;;11.98;6.07;;;;;;;;;;5091745;28;20073;-77
2023/02/16 15:23:00;;;;;;;13.40;6.50;;;;;;;;;;5092274;28;20055;-76
2023/02/16 15:25:28;;;;;;;11.07;5.85;;;;;;;;;;5092120;28;20495;-77